createdAt,value
2023-03-31T00:02:13.606Z,39.40
2023-03-31T00:04:52.769Z,35.73
2023-03-31T00:07:24.397Z,37.23
2023-03-31T00:10:00.892Z,40.07
2023-03-31T00:12:37.290Z,38.53
2023-03-31T00:15:04.240Z,33.37
2023-03-31T00:17:33.491Z,36.63
2023-03-31T00:20:04.973Z,42.10
2023-03-31T00:22:31.714Z,36.07
2023-03-31T00:24:58.257Z,41.50
2023-03-31T00:27:24.887Z,33.40
2023-03-31T00:29:53.251Z,37.17
2023-03-31T00:32:19.776Z,36.43
2023-03-31T00:34:46.799Z,30.93
2023-03-31T00:37:14.998Z,33.77
2023-03-31T00:39:42.362Z,38.03
2023-03-31T00:42:13.205Z,31.43
2023-03-31T00:45:14.707Z,28.23
2023-03-31T00:48:03.925Z,32.20
2023-03-31T00:53:16.044Z,30.20
2023-03-31T00:55:49.225Z,23.30
2023-03-31T00:58:20.399Z,38.53
2023-03-31T01:00:53.853Z,35.53
2023-03-31T01:03:22.941Z,27.63
2023-03-31T01:05:51.812Z,36.13
2023-03-31T01:08:20.210Z,26.07
2023-03-31T01:10:51.494Z,38.87
2023-03-31T01:13:20.048Z,22.50
2023-03-31T01:15:46.751Z,22.23
2023-03-31T01:18:16.486Z,41.03
2023-03-31T01:21:08.044Z,29.80
2023-03-31T01:23:56.219Z,29.40
2023-03-31T01:26:48.193Z,30.53
2023-03-31T01:30:07.224Z,31.23
2023-03-31T01:32:55.520Z,20.93
2023-03-31T01:35:49.492Z,27.30
2023-03-31T01:38:43.380Z,24.50
2023-03-31T01:41:25.133Z,21.50
2023-03-31T01:44:01.141Z,24.47
2023-03-31T01:46:31.847Z,28.93
2023-03-31T01:49:19.999Z,23.60
2023-03-31T01:51:56.206Z,22.70
2023-03-31T01:54:28.646Z,20.43
2023-03-31T01:57:31.976Z,20.27
2023-03-31T02:00:24.029Z,26.90
2023-03-31T02:03:06.051Z,19.93
2023-03-31T02:05:39.106Z,23.77
2023-03-31T02:08:13.611Z,27.03
2023-03-31T02:10:44.023Z,24.73
2023-03-31T02:13:13.129Z,19.97
2023-03-31T02:15:43.603Z,21.73
2023-03-31T02:18:17.380Z,17.63
2023-03-31T02:20:47.061Z,20.90
2023-03-31T02:23:17.804Z,18.83
2023-03-31T02:26:01.046Z,16.77
2023-03-31T02:28:28.811Z,22.43
2023-03-31T02:31:04.717Z,20.77
2023-03-31T02:33:31.438Z,20.90
2023-03-31T02:35:59.603Z,16.23
2023-03-31T02:38:27.249Z,21.87
2023-03-31T02:40:54.040Z,20.10
2023-03-31T02:43:20.935Z,23.47
2023-03-31T02:45:51.698Z,19.10
2023-03-31T02:48:26.899Z,28.10
2023-03-31T02:51:09.140Z,17.30
2023-03-31T02:54:13.292Z,16.93
2023-03-31T02:56:48.890Z,21.30
2023-03-31T02:59:30.837Z,20.33
2023-03-31T03:02:08.537Z,27.30
2023-03-31T03:04:59.207Z,16.03
2023-03-31T03:07:38.853Z,25.50
2023-03-31T03:10:20.379Z,20.83
2023-03-31T03:13:21.244Z,21.23
2023-03-31T03:15:53.207Z,16.87
2023-03-31T03:18:19.852Z,23.83
2023-03-31T03:20:49.465Z,15.77
2023-03-31T03:23:16.927Z,17.23
2023-03-31T03:25:44.130Z,29.30
2023-03-31T03:28:11.263Z,20.50
2023-03-31T03:30:37.888Z,14.33
2023-03-31T03:33:06.640Z,24.27
2023-03-31T03:35:34.208Z,19.57
2023-03-31T03:38:01.201Z,19.67
2023-03-31T03:40:27.791Z,23.57
2023-03-31T03:42:54.335Z,21.93
2023-03-31T03:45:20.971Z,26.97
2023-03-31T03:47:47.626Z,17.67
2023-03-31T03:50:16.191Z,14.83
2023-03-31T03:52:43.714Z,21.60
2023-03-31T03:55:12.182Z,24.60
2023-03-31T03:57:38.769Z,16.70
2023-03-31T04:00:12.701Z,17.70
2023-03-31T04:02:40.189Z,19.30
2023-03-31T04:05:07.208Z,16.27
2023-03-31T04:07:33.928Z,22.10
2023-03-31T04:10:00.777Z,20.13
2023-03-31T04:12:27.461Z,15.30
2023-03-31T04:14:54.015Z,19.63
2023-03-31T04:17:32.974Z,17.70
2023-03-31T04:20:02.171Z,20.93
2023-03-31T04:22:35.534Z,17.37
2023-03-31T04:25:04.050Z,17.87
2023-03-31T04:27:33.029Z,21.67
2023-03-31T04:29:59.550Z,15.67
2023-03-31T04:32:26.146Z,23.20
2023-03-31T04:35:02.751Z,19.00
2023-03-31T04:37:35.359Z,15.63
2023-03-31T04:40:08.376Z,24.47
2023-03-31T04:42:35.091Z,22.13
2023-03-31T04:45:01.885Z,22.13
2023-03-31T04:47:28.521Z,22.10
2023-03-31T04:49:55.860Z,23.27
2023-03-31T04:52:22.492Z,21.83
2023-03-31T04:54:49.068Z,20.87
2023-03-31T04:57:15.758Z,22.13
2023-03-31T04:59:42.383Z,28.97
2023-03-31T05:02:09.709Z,22.57
2023-03-31T05:04:37.824Z,26.03
2023-03-31T05:07:04.532Z,25.13
2023-03-31T05:09:31.495Z,24.60
2023-03-31T05:11:59.063Z,19.50
2023-03-31T05:14:25.720Z,23.07
2023-03-31T05:16:52.484Z,22.37
2023-03-31T05:19:19.133Z,21.60
2023-03-31T05:21:45.685Z,22.90
2023-03-31T05:24:12.262Z,19.73
2023-03-31T05:26:40.135Z,20.47
2023-03-31T05:29:06.810Z,24.10
2023-03-31T05:31:33.448Z,25.90
2023-03-31T05:34:00.167Z,22.30
2023-03-31T05:36:27.416Z,25.70
2023-03-31T05:38:54.210Z,29.43
2023-03-31T05:41:21.272Z,22.93
2023-03-31T05:43:48.094Z,27.20
2023-03-31T05:46:14.970Z,24.77
2023-03-31T05:48:42.006Z,23.30
2023-03-31T05:51:08.668Z,23.57
2023-03-31T05:53:35.290Z,26.87
2023-03-31T05:56:04.460Z,18.57
2023-03-31T05:58:31.331Z,16.37
2023-03-31T06:01:09.028Z,20.27
2023-03-31T06:03:38.211Z,50.60
2023-03-31T06:06:06.455Z,21.17
2023-03-31T06:08:33.272Z,27.57
2023-03-31T06:11:00.136Z,19.00
2023-03-31T06:13:26.777Z,20.73
2023-03-31T06:15:57.712Z,15.90
2023-03-31T06:18:25.149Z,23.73
2023-03-31T06:20:52.315Z,21.07
2023-03-31T06:23:18.857Z,22.63
2023-03-31T06:25:51.216Z,14.47
2023-03-31T06:28:18.975Z,15.00
2023-03-31T06:30:45.634Z,20.23
2023-03-31T06:33:13.463Z,21.60
2023-03-31T06:35:41.667Z,20.70
2023-03-31T06:38:09.041Z,18.70
2023-03-31T06:40:35.795Z,17.43
2023-03-31T06:43:02.427Z,12.13
2023-03-31T06:45:30.241Z,17.40
2023-03-31T06:47:56.838Z,17.37
2023-03-31T06:50:23.523Z,22.03
2023-03-31T06:52:52.854Z,19.47
2023-03-31T06:55:19.394Z,17.63
2023-03-31T06:57:45.934Z,18.47
2023-03-31T07:00:13.688Z,18.33
2023-03-31T07:02:40.617Z,19.57
2023-03-31T07:05:07.850Z,16.67
2023-03-31T07:07:35.655Z,18.20
2023-03-31T07:10:02.390Z,18.67
2023-03-31T07:12:29.239Z,17.37
2023-03-31T07:14:56.920Z,21.30
2023-03-31T07:17:25.559Z,25.53
2023-03-31T07:19:52.292Z,18.70
2023-03-31T07:22:19.142Z,16.83
2023-03-31T07:24:45.797Z,20.60
2023-03-31T07:27:15.502Z,18.63
2023-03-31T07:29:42.109Z,16.03
2023-03-31T07:32:09.061Z,19.83
2023-03-31T07:34:37.770Z,16.57
2023-03-31T07:37:04.461Z,16.77
2023-03-31T07:39:31.109Z,16.80
2023-03-31T07:41:57.801Z,24.33
2023-03-31T07:44:24.850Z,16.27
2023-03-31T07:46:51.425Z,13.57
2023-03-31T07:49:18.080Z,20.50
2023-03-31T07:51:44.717Z,13.80
2023-03-31T07:54:11.414Z,17.53
2023-03-31T07:56:38.342Z,13.70
2023-03-31T07:59:05.362Z,17.47
2023-03-31T08:01:32.180Z,13.97
2023-03-31T08:03:59.328Z,18.47
2023-03-31T08:06:27.048Z,21.13
2023-03-31T08:08:53.768Z,16.50
2023-03-31T08:11:21.568Z,20.07
2023-03-31T08:13:48.300Z,19.43
2023-03-31T08:16:15.124Z,17.33
2023-03-31T08:18:41.882Z,18.77
2023-03-31T08:21:10.023Z,17.00
2023-03-31T08:23:37.081Z,18.00
2023-03-31T08:26:15.778Z,15.57
2023-03-31T08:28:45.328Z,21.80
2023-03-31T08:31:12.954Z,15.87
2023-03-31T08:33:39.577Z,26.23
2023-03-31T08:36:10.578Z,16.90
2023-03-31T08:38:39.319Z,16.97
2023-03-31T08:41:14.334Z,13.70
2023-03-31T08:43:46.433Z,17.73
2023-03-31T08:46:16.182Z,12.10
2023-03-31T08:48:51.153Z,12.43
2023-03-31T08:51:24.544Z,14.13
2023-03-31T08:53:57.828Z,8.67
2023-03-31T08:56:26.647Z,12.57
2023-03-31T08:58:54.171Z,17.70
2023-03-31T09:01:58.131Z,9.73
2023-03-31T09:04:47.432Z,12.87
2023-03-31T09:07:46.411Z,11.57
2023-03-31T09:10:13.326Z,14.73
2023-03-31T09:12:51.976Z,11.67
2023-03-31T09:15:43.410Z,15.27
2023-03-31T09:18:26.374Z,16.70
2023-03-31T09:20:57.324Z,11.57
2023-03-31T09:23:36.557Z,15.30
2023-03-31T09:26:04.648Z,14.70
2023-03-31T09:28:39.166Z,11.40
2023-03-31T09:31:14.606Z,11.67
2023-03-31T09:33:45.591Z,12.00
2023-03-31T09:36:18.233Z,13.27
2023-03-31T09:38:46.630Z,15.57
2023-03-31T09:41:15.395Z,7.53
2023-03-31T09:43:42.694Z,7.97
2023-03-31T09:46:28.482Z,13.27
2023-03-31T09:49:21.127Z,11.43
2023-03-31T09:51:55.416Z,10.70
2023-03-31T09:54:29.569Z,8.30
2023-03-31T09:56:56.226Z,12.47
2023-03-31T09:59:30.165Z,12.53
2023-03-31T10:02:00.206Z,9.23
2023-03-31T10:04:30.881Z,11.57
2023-03-31T10:06:59.065Z,5.67
2023-03-31T10:09:30.419Z,10.70
2023-03-31T10:12:02.547Z,7.27
2023-03-31T10:14:50.678Z,9.37
2023-03-31T10:17:23.115Z,8.87
2023-03-31T10:19:56.809Z,10.97
2023-03-31T10:22:23.365Z,10.13
2023-03-31T10:24:51.810Z,8.10
2023-03-31T10:27:19.830Z,10.63
2023-03-31T10:29:47.178Z,8.33
2023-03-31T10:32:29.525Z,8.83
2023-03-31T10:35:08.277Z,8.07
2023-03-31T10:37:36.938Z,10.13
2023-03-31T10:40:16.107Z,9.83
2023-03-31T10:42:46.730Z,6.57
2023-03-31T10:45:29.740Z,7.27
2023-03-31T10:48:02.820Z,9.30
2023-03-31T10:50:33.152Z,7.20
2023-03-31T10:53:13.106Z,7.17
2023-03-31T10:55:50.194Z,7.97
2023-03-31T10:58:37.766Z,10.00
2023-03-31T11:01:46.778Z,6.87
2023-03-31T11:04:30.640Z,7.37
2023-03-31T11:07:04.533Z,10.20
2023-03-31T11:09:50.234Z,8.43
2023-03-31T11:12:27.742Z,10.43
2023-03-31T11:15:18.190Z,6.90
2023-03-31T11:18:14.168Z,7.10
2023-03-31T11:20:48.864Z,6.73
2023-03-31T11:23:25.165Z,8.67
2023-03-31T11:26:16.751Z,7.53
2023-03-31T11:29:08.368Z,7.33
2023-03-31T11:31:51.001Z,8.47
2023-03-31T11:34:23.558Z,7.63
2023-03-31T11:37:13.439Z,8.27
2023-03-31T11:40:01.100Z,6.43
2023-03-31T11:42:38.182Z,6.60
2023-03-31T11:45:14.681Z,6.53
2023-03-31T11:47:46.372Z,7.80
2023-03-31T11:50:18.697Z,12.77
2023-03-31T11:52:56.346Z,7.33
2023-03-31T11:55:27.596Z,9.50
2023-03-31T11:57:57.320Z,9.40
2023-03-31T12:00:29.704Z,15.40
2023-03-31T12:03:03.757Z,7.53
2023-03-31T12:05:34.004Z,7.63
2023-03-31T12:08:06.278Z,8.27
2023-03-31T12:10:38.405Z,6.47
2023-03-31T12:13:33.993Z,5.13
2023-03-31T12:16:16.158Z,7.57
2023-03-31T12:18:56.153Z,6.50
2023-03-31T12:21:25.364Z,7.47
2023-03-31T12:23:52.067Z,5.30
2023-03-31T12:26:40.153Z,9.20
2023-03-31T12:29:22.724Z,5.67
2023-03-31T12:31:52.472Z,6.83
2023-03-31T12:34:22.305Z,7.63
2023-03-31T12:37:04.070Z,11.00
2023-03-31T12:39:41.899Z,11.17
2023-03-31T12:42:23.559Z,6.60
2023-03-31T12:45:03.656Z,12.43
2023-03-31T12:48:11.968Z,8.17
2023-03-31T12:51:02.365Z,8.80
2023-03-31T12:53:44.120Z,12.00
2023-03-31T12:56:10.802Z,8.67
2023-03-31T12:58:42.492Z,8.17
2023-03-31T13:01:19.735Z,7.37
2023-03-31T13:04:10.115Z,10.60
2023-03-31T13:06:37.329Z,7.23
2023-03-31T13:09:11.526Z,9.83
2023-03-31T13:11:44.941Z,6.07
2023-03-31T13:14:24.212Z,5.47
2023-03-31T13:19:42.337Z,6.37
2023-03-31T13:22:29.496Z,8.93
2023-03-31T13:25:30.949Z,7.33
2023-03-31T13:28:27.805Z,7.33
2023-03-31T13:30:56.974Z,6.43
2023-03-31T13:33:34.558Z,5.93
2023-03-31T13:36:22.324Z,4.33
2023-03-31T13:39:22.887Z,8.50
2023-03-31T13:42:33.958Z,7.47
2023-03-31T13:45:22.646Z,6.87
2023-03-31T13:48:01.321Z,6.00
2023-03-31T13:50:39.863Z,7.13
2023-03-31T13:53:39.362Z,6.27
2023-03-31T13:56:36.497Z,8.37
2023-03-31T13:59:26.775Z,5.60
2023-03-31T14:02:17.155Z,3.70
2023-03-31T14:05:21.542Z,7.57
2023-03-31T14:07:54.911Z,5.20
2023-03-31T14:10:37.361Z,5.70
2023-03-31T14:13:06.513Z,5.87
2023-03-31T14:15:35.784Z,5.63
2023-03-31T14:18:04.672Z,5.83
2023-03-31T14:20:40.434Z,4.87
2023-03-31T14:23:25.026Z,5.03
2023-03-31T14:25:56.935Z,18.93
2023-03-31T14:28:29.878Z,3.90
2023-03-31T14:31:35.648Z,4.93
2023-03-31T14:34:25.445Z,2.73
2023-03-31T14:37:13.895Z,3.17
2023-03-31T14:39:46.222Z,4.30
2023-03-31T14:42:27.362Z,3.87
2023-03-31T14:45:02.146Z,4.23
2023-03-31T14:47:30.061Z,3.17
2023-03-31T14:50:26.898Z,4.80
2023-03-31T14:52:53.649Z,2.63
2023-03-31T14:55:35.614Z,3.73
2023-03-31T14:58:06.394Z,5.53
2023-03-31T15:00:36.234Z,3.47
2023-03-31T15:03:07.470Z,3.30
2023-03-31T15:05:36.932Z,4.13
2023-03-31T15:08:20.025Z,6.20
2023-03-31T15:10:58.650Z,5.37
2023-03-31T15:13:46.776Z,3.97
2023-03-31T15:16:43.937Z,2.77
2023-03-31T15:19:26.512Z,2.53
2023-03-31T15:22:06.254Z,2.30
2023-03-31T15:24:33.149Z,4.07
2023-03-31T15:27:06.284Z,4.40
2023-03-31T15:29:43.172Z,3.50
2023-03-31T15:32:30.311Z,5.47
2023-03-31T15:35:04.727Z,6.20
2023-03-31T15:37:41.574Z,2.50
2023-03-31T15:40:29.508Z,3.63
2023-03-31T15:45:51.691Z,4.47
2023-03-31T15:48:33.559Z,3.83
2023-03-31T15:51:41.319Z,4.83
2023-03-31T15:54:40.727Z,6.00
2023-03-31T15:57:10.019Z,3.77
2023-03-31T15:59:56.074Z,5.00
2023-03-31T16:02:26.611Z,2.57
2023-03-31T16:04:59.665Z,2.53
2023-03-31T16:07:34.779Z,3.80
2023-03-31T16:10:09.622Z,3.20
2023-03-31T16:12:56.535Z,4.50
2023-03-31T16:15:36.350Z,1.47
2023-03-31T16:18:17.679Z,2.73
2023-03-31T16:20:52.129Z,4.13
2023-03-31T16:23:26.095Z,3.30
2023-03-31T16:25:53.118Z,4.20
2023-03-31T16:28:26.693Z,4.90
2023-03-31T16:30:54.847Z,4.03
2023-03-31T16:33:26.098Z,3.03
2023-03-31T16:35:56.083Z,1.93
2023-03-31T16:38:24.520Z,2.80
2023-03-31T16:40:54.354Z,7.90
2023-03-31T16:43:23.203Z,3.93
2023-03-31T16:45:52.731Z,11.70
2023-03-31T16:48:21.804Z,10.63
2023-03-31T16:50:51.466Z,5.87
2023-03-31T16:53:22.335Z,2.97
2023-03-31T16:55:49.774Z,3.23
2023-03-31T16:58:18.045Z,6.23
2023-03-31T17:00:46.166Z,4.07
2023-03-31T17:03:14.198Z,6.27
2023-03-31T17:05:43.475Z,4.50
2023-03-31T17:08:11.447Z,4.90
2023-03-31T17:10:39.991Z,4.50
2023-03-31T17:13:08.069Z,5.20
2023-03-31T17:15:36.668Z,5.77
2023-03-31T17:18:04.544Z,6.70
2023-03-31T17:20:31.662Z,5.10
2023-03-31T17:22:58.896Z,5.40
2023-03-31T17:25:26.412Z,4.37
2023-03-31T17:27:53.234Z,6.73
2023-03-31T17:30:19.928Z,10.80
2023-03-31T17:32:46.571Z,5.47
2023-03-31T17:35:20.534Z,6.77
2023-03-31T17:37:50.640Z,8.73
2023-03-31T17:40:17.481Z,6.07
2023-03-31T17:42:44.817Z,8.47
2023-03-31T17:45:13.087Z,7.27
2023-03-31T17:47:40.239Z,6.37
2023-03-31T17:50:08.915Z,18.17
2023-03-31T17:52:36.393Z,19.83
2023-03-31T17:55:04.398Z,17.10
2023-03-31T17:57:31.860Z,6.67
2023-03-31T17:59:59.037Z,7.23
2023-03-31T18:02:25.786Z,4.77
2023-03-31T18:04:52.668Z,9.37
2023-03-31T18:07:19.518Z,6.73
2023-03-31T18:09:46.161Z,8.83
2023-03-31T18:12:12.801Z,6.70
2023-03-31T18:14:39.656Z,6.03
2023-03-31T18:17:06.775Z,6.00
2023-03-31T18:19:33.640Z,6.53
2023-03-31T18:22:00.411Z,6.03
2023-03-31T18:24:27.288Z,6.63
2023-03-31T18:26:53.891Z,7.10
2023-03-31T18:29:20.574Z,4.40
2023-03-31T18:31:47.221Z,7.80
2023-03-31T18:34:14.465Z,5.53
2023-03-31T18:36:41.256Z,6.53
2023-03-31T18:39:08.111Z,5.77
2023-03-31T18:41:34.712Z,6.97
2023-03-31T18:44:01.560Z,6.23
2023-03-31T18:46:28.295Z,8.83
2023-03-31T18:48:55.082Z,6.70
2023-03-31T18:51:22.004Z,9.57
2023-03-31T18:53:48.676Z,8.67
2023-03-31T18:56:15.478Z,26.33
2023-03-31T18:58:42.272Z,24.13
2023-03-31T19:01:08.971Z,11.27
2023-03-31T19:03:35.671Z,5.67
2023-03-31T19:06:03.120Z,7.87
2023-03-31T19:08:31.621Z,5.93
2023-03-31T19:11:13.541Z,8.47
2023-03-31T19:13:43.128Z,7.23
2023-03-31T19:16:11.364Z,8.87
2023-03-31T19:18:39.281Z,10.03
2023-03-31T19:21:06.408Z,7.83
2023-03-31T19:23:33.568Z,7.50
2023-03-31T19:26:00.645Z,7.20
2023-03-31T19:28:27.983Z,6.57
2023-03-31T19:30:56.723Z,9.73
2023-03-31T19:33:24.804Z,8.77
2023-03-31T19:35:52.261Z,6.77
2023-03-31T19:38:19.865Z,10.00
2023-03-31T19:40:46.456Z,6.87
2023-03-31T19:43:24.488Z,7.70
2023-03-31T19:45:57.016Z,11.43
2023-03-31T19:48:26.363Z,6.80
2023-03-31T19:50:56.077Z,10.97
2023-03-31T19:53:23.755Z,10.17
2023-03-31T19:55:59.248Z,8.17
2023-03-31T19:58:27.356Z,7.70
2023-03-31T20:00:55.728Z,7.37
2023-03-31T20:03:24.707Z,6.77
2023-03-31T20:05:52.121Z,12.67
2023-03-31T20:08:18.672Z,11.87
2023-03-31T20:10:45.489Z,10.33
2023-03-31T20:13:12.136Z,12.20
2023-03-31T20:15:40.418Z,9.17
2023-03-31T20:18:07.492Z,13.17
2023-03-31T20:20:34.185Z,10.27
2023-03-31T20:23:01.177Z,12.27
2023-03-31T20:25:27.884Z,11.13
2023-03-31T20:27:54.521Z,10.67
2023-03-31T20:30:21.328Z,12.43
2023-03-31T20:32:48.034Z,16.80
2023-03-31T20:35:14.768Z,12.03
2023-03-31T20:37:41.372Z,12.97
2023-03-31T20:40:08.823Z,7.90
2023-03-31T20:42:46.675Z,8.80
2023-03-31T20:45:13.682Z,7.00
2023-03-31T20:47:40.561Z,11.13
2023-03-31T20:50:07.672Z,9.70
2023-03-31T20:52:34.283Z,12.13
2023-03-31T20:55:00.812Z,10.70
2023-03-31T20:57:27.530Z,9.60
2023-03-31T20:59:55.002Z,9.40
2023-03-31T21:02:21.572Z,7.63
2023-03-31T21:04:50.982Z,7.70
2023-03-31T21:07:17.905Z,10.60
2023-03-31T21:09:46.159Z,12.03
2023-03-31T21:12:12.878Z,9.27
2023-03-31T21:14:39.594Z,7.93
2023-03-31T21:17:06.526Z,7.33
2023-03-31T21:19:33.153Z,11.03
2023-03-31T21:21:59.781Z,8.37
2023-03-31T21:24:26.603Z,6.87
2023-03-31T21:26:53.246Z,6.33
2023-03-31T21:29:19.868Z,7.37
2023-03-31T21:31:47.375Z,7.00
2023-03-31T21:34:13.986Z,11.47
2023-03-31T21:36:40.718Z,14.70
2023-03-31T21:39:09.813Z,11.67
2023-03-31T21:41:37.894Z,8.20
2023-03-31T21:44:04.537Z,9.20
2023-03-31T21:46:33.528Z,6.97
2023-03-31T21:49:01.466Z,6.13
2023-03-31T21:51:28.808Z,7.60
2023-03-31T21:53:55.935Z,18.27
2023-03-31T21:56:24.677Z,9.27
2023-03-31T21:58:51.429Z,8.43
2023-03-31T22:01:18.653Z,10.57
2023-03-31T22:03:45.951Z,17.07
2023-03-31T22:06:12.957Z,10.37
2023-03-31T22:08:39.733Z,10.07
2023-03-31T22:11:08.218Z,12.33
2023-03-31T22:13:35.531Z,8.53
2023-03-31T22:16:02.395Z,10.90
2023-03-31T22:18:30.652Z,10.43
2023-03-31T22:20:57.494Z,8.93
2023-03-31T22:23:24.546Z,10.53
2023-03-31T22:25:54.562Z,10.90
2023-03-31T22:28:21.215Z,10.83
2023-03-31T22:30:47.819Z,17.33
2023-03-31T22:33:14.397Z,13.53
2023-03-31T22:35:41.136Z,9.43
2023-03-31T22:38:08.703Z,15.00
2023-03-31T22:40:36.199Z,15.00
2023-03-31T22:43:02.935Z,12.37
2023-03-31T22:45:29.657Z,11.03
2023-03-31T22:47:56.728Z,9.93
2023-03-31T22:50:24.187Z,10.27
2023-03-31T22:52:51.050Z,10.83
2023-03-31T22:55:17.716Z,14.03
2023-03-31T22:57:44.740Z,11.97
2023-03-31T23:00:12.959Z,10.00
2023-03-31T23:02:39.954Z,10.47
2023-03-31T23:05:07.077Z,9.90
2023-03-31T23:07:33.870Z,14.00
2023-03-31T23:10:00.708Z,13.23
2023-03-31T23:12:28.432Z,11.40
2023-03-31T23:14:55.011Z,13.83
2023-03-31T23:17:21.591Z,11.67
2023-03-31T23:19:48.786Z,9.50
2023-03-31T23:22:15.395Z,13.07
2023-03-31T23:24:42.251Z,12.60
2023-03-31T23:27:08.864Z,8.93
2023-03-31T23:29:35.819Z,11.73
2023-03-31T23:32:02.918Z,8.93
2023-03-31T23:34:29.645Z,11.93
2023-03-31T23:36:56.285Z,15.03
2023-03-31T23:39:23.289Z,14.13
2023-03-31T23:41:49.963Z,11.00
2023-03-31T23:44:16.678Z,11.20
2023-03-31T23:46:44.494Z,9.50
2023-03-31T23:49:11.957Z,8.87
2023-03-31T23:51:38.866Z,11.63
2023-03-31T23:54:05.589Z,10.60
2023-03-31T23:56:32.153Z,9.30
2023-03-31T23:58:58.775Z,13.60
